Observations for LIVERPOOL AIRPORT, United Kingdom (EGGP)

EGGP 201650Z 31017KT 9999 SCT030 16/06 Q1020
EGGP 201620Z 32016KT 290V350 9999 SCT030 17/07 Q1020
EGGP 201550Z 32016G26KT 290V350 9999 SCT032 16/08 Q1020 
EGGP 201520Z 31014KT 280V350 9999 SCT032 17/08 Q1020
EGGP 201450Z 32016KT 280V340 9999 SCT036 17/08 Q1020
EGGP 201420Z 30017KT 280V340 9999 SCT026 15/09 Q1020
EGGP 201350Z 29018KT 9999 SCT022 BKN048 15/09 Q1020 
EGGP 201320Z 30019KT 9999 VCSH SCT020 BKN048 15/09 Q1019
EGGP 201250Z 29019KT 9999 VCSH SCT019 BKN042 15/10 Q1019
EGGP 201220Z 30016KT 9999 VCSH SCT013 SCT019 15/11 Q1018
EGGP 201150Z 31015G26KT 9999 VCSH SCT013 BKN019 15/12 Q1018 
EGGP 201120Z 27019KT 250V310 9000 -RADZ SCT020 BKN034 16/15 Q1017   
EGGP 201050Z 27016KT 9999 9000N SHRA BKN020 19/15 Q1017 
EGGP 201020Z 25016KT 9999 FEW022 BKN032 19/14 Q1017 
EGGP 200950Z 24016KT 9999 FEW022 BKN035 18/13 Q1017 
EGGP 200920Z 24016KT 9999 FEW027 BKN035 18/13 Q1016 
EGGP 200850Z 24014KT 9999 SCT026 BKN033 18/13 Q1016 
EGGP 200820Z 25016G27KT 9999 SCT024 19/14 Q1016 
EGGP 200750Z 24020G30KT 9999 SCT024 18/15 Q1015 
EGGP 200720Z 23018KT 9999 VCSH BKN024 18/14 Q1015   
EGGP 200650Z 23016KT 9999 VCSH BKN021 18/15 Q1015   
EGGP 200620Z 20011KT 160V240 9999 VCSH BKN021 19/15 Q1015   
EGGP 200550Z 18009KT 150V240 9999 VCSH SCT025 19/15 Q1015   
EGGP 200520Z 17008KT 140V200 9999 SCT027 17/14 Q1015
EGGP 200450Z 16005KT 9999 SCT024 17/14 Q1015
EGGP 200420Z 17008KT 9999 SCT022 17/14 Q1015
EGGP 200350Z 18008KT 150V210 9999 SCT022 17/14 Q1016
EGGP 200320Z 21005KT 170V250 9999 SCT020 18/14 Q1016
EGGP 200250Z 21014KT 9999 SCT020 SCT025 18/14 Q1016 
EGGP 200150Z 22008KT 9999 SCT020 SCT023 18/14 Q1017 
EGGP 200120Z 23011KT 9999 SCT022 18/14 Q1017
EGGP 200050Z 22014KT 9999 SCT025 19/14 Q1017
EGGP 200020Z 23016KT 9999 SCT027 19/14 Q1017
EGGP 192350Z 22017KT 9999 SCT027 18/14 Q1017
EGGP 192320Z 22018KT 9999 SCT035 18/14 Q1018
EGGP 192250Z 21011KT 9999 SCT034 18/14 Q1018
EGGP 192220Z 20013KT 9999 SCT030 18/15 Q1018
EGGP 192150Z 21016KT 9999 SCT025 18/14 Q1018
EGGP 192120Z 21014KT 9999 SCT025 18/14 Q1018
EGGP 192050Z 20012KT 9999 SCT025 19/15 Q1018
EGGP 192020Z 22012KT 9999 SCT027 19/14 Q1018
EGGP 191950Z 22012G22KT 9999 SCT028 20/15 Q1018 
EGGP 191920Z 21012KT 9999 SCT035 20/15 Q1018
EGGP 191850Z 22015KT 9999 SCT035 20/15 Q1018
EGGP 191820Z 22017KT 9999 SCT035 20/15 Q1018
EGGP 191750Z 22013KT 9999 FEW024 SCT048 21/16 Q1019 
EGGP 191720Z 23013KT 9999 FEW024 SCT048 20/15 Q1019 
EGGP 191650Z 23014KT 9999 FEW024 SCT048 21/15 Q1019 
EGGP 191620Z 22012KT 9999 FEW024 SCT048 20/16 Q1019